Alpine Light — V7UJ6 — position and weather

sailwx.info

Track history (hours):
 
Tides and Currents Weather Stations Pressure Air Temp Water Temp Dewpoint Dewpoint Depression Visibility Wind Speed Wind Dir Waves Ship Positions

Alpine Light

Last reported at 2017-Oct-08 16:34 UTC. Time now 2017-Oct-23 03:01 UTC.
Position N 01°10' E 103°49'.
Warning: this ship's position is 14 days out of date.

Length 183 m; draft 12.5 m.

Type: Tanker. MMSI: 538003962.

Date/timePositionNaut miles runAvg speedWind from/ knotsBaromVisibWave heightAir tempDewpointWater temp
2017-Oct-08 16:34N 01°10' E 103°49'0 3.1
2017-Oct-08 16:27N 01°10' E 103°49'13 1.7
2017-Oct-08 09:10N 01°14' E 104°01'211.4
2017-Oct-08 08:58N 01°14' E 103°58'511.6
2017-Oct-08 08:29N 01°12' E 103°53'612.0
2017-Oct-08 08:01N 01°09' E 103°48'611.2
2017-Oct-08 07:30N 01°05' E 103°44'510.1
2017-Oct-08 06:58N 01°02' E 103°40'712.8
2017-Oct-08 06:27N 01°05' E 103°34'  
2017-Oct-05 18:38N 01°13' E 103°29'213.3
2017-Oct-05 18:29N 01°13' E 103°31'511.5
2017-Oct-05 18:00N 01°11' E 103°36'510.1
2017-Oct-05 17:30N 01°10' E 103°41'5 9.2
2017-Oct-05 17:00N 01°09' E 103°46'5 3.3
2017-Oct-05 15:28N 01°14' E 103°48'0 0.1
2017-Oct-05 14:58N 01°14' E 103°48'0 0.1
2017-Oct-05 14:19N 01°14' E 103°48'0 0.0
2017-Oct-05 13:58N 01°14' E 103°48'0 0.0
2017-Oct-05 13:28N 01°14' E 103°48'0 0.1
2017-Oct-05 12:58N 01°14' E 103°48'0 0.0
2017-Oct-05 12:28N 01°14' E 103°48'0 0.0
2017-Oct-05 11:58N 01°14' E 103°48'0 0.0
2017-Oct-05 11:25N 01°13' E 103°48'0 0.0
2017-Oct-05 10:55N 01°14' E 103°48'0 0.0
2017-Oct-05 10:28N 01°14' E 103°48'0 0.1
2017-Oct-05 09:58N 01°14' E 103°48'0 0.1
2017-Oct-05 09:28N 01°14' E 103°48'0 0.1
2017-Oct-05 08:58N 01°14' E 103°49'0 0.1
2017-Oct-05 08:13N 01°13' E 103°49'0 0.0
2017-Oct-05 07:58N 01°13' E 103°49'0 0.0
2017-Oct-05 07:25N 01°13' E 103°49'0 0.0
2017-Oct-05 06:58N 01°13' E 103°49'0 0.1
2017-Oct-05 06:28N 01°13' E 103°49'0 0.1
2017-Oct-05 05:55N 01°13' E 103°49'0 0.0
2017-Oct-05 05:28N 01°13' E 103°49'0 0.1
2017-Oct-05 04:46N 01°14' E 103°48'0 0.0
2017-Oct-05 04:28N 01°14' E 103°48'0 0.0
2017-Oct-05 03:52N 01°14' E 103°48'0 0.1
2017-Oct-05 03:22N 01°14' E 103°48'0 0.1
2017-Oct-05 02:43N 01°14' E 103°48'0 0.0
2017-Oct-05 02:28N 01°14' E 103°48'0 0.1
2017-Oct-05 01:58N 01°14' E 103°48'0 0.1
2017-Oct-05 01:22N 01°14' E 103°48'0 0.1
2017-Oct-05 00:58N 01°14' E 103°48'0 0.1
2017-Oct-05 00:28N 01°14' E 103°48'0 0.2
2017-Oct-04 23:58N 01°13' E 103°49'0 0.0
2017-Oct-04 23:28N 01°13' E 103°49'0 0.0
2017-Oct-04 22:52N 01°13' E 103°49'0 0.0
2017-Oct-04 22:25N 01°13' E 103°49'0 0.0
2017-Oct-04 21:58N 01°13' E 103°49'0 0.1
2017-Oct-04 21:28N 01°13' E 103°49'0 0.0
2017-Oct-04 20:58N 01°13' E 103°49'0 0.0
2017-Oct-04 20:28N 01°13' E 103°49'0 0.0
2017-Oct-04 19:58N 01°13' E 103°49'0 0.0
2017-Oct-04 19:28N 01°13' E 103°49'0 0.0
2017-Oct-04 18:58N 01°13' E 103°49'0 0.0
2017-Oct-04 18:28N 01°13' E 103°49'0 0.0
2017-Oct-04 17:58N 01°13' E 103°49'0 0.1
2017-Oct-04 17:28N 01°13' E 103°49'0 0.1
2017-Oct-04 16:58N 01°13' E 103°49'0 0.0
2017-Oct-04 16:25N 01°13' E 103°49'0 0.1
2017-Oct-04 15:58N 01°14' E 103°48'0 0.0
2017-Oct-04 15:28N 01°13' E 103°48'0 0.0
2017-Oct-04 14:52N 01°14' E 103°48'0 0.1
2017-Oct-04 14:28N 01°14' E 103°48'0 0.1
2017-Oct-04 13:58N 01°14' E 103°48'0 0.0
2017-Oct-04 13:28N 01°14' E 103°48'0 0.1
2017-Oct-04 12:49N 01°14' E 103°48'0 0.0
2017-Oct-04 12:28N 01°14' E 103°48'0 0.1
2017-Oct-04 11:58N 01°14' E 103°48'0 0.0
2017-Oct-04 11:25N 01°14' E 103°48'0 0.1
2017-Oct-04 10:58N 01°13' E 103°48'0 0.1
2017-Oct-04 10:23N 01°14' E 103°48'0 0.9
2017-Oct-04 10:00N 01°14' E 103°48'3 6.6
2017-Oct-04 09:30N 01°15' E 103°45'5 9.8
2017-Oct-04 09:00N 01°13' E 103°40'4 8.0
2017-Oct-04 08:30N 01°13' E 103°36'4 7.7
2017-Oct-04 08:01N 01°09' E 103°36'0 0.1
2017-Oct-04 07:28N 01°09' E 103°36'0 0.0
2017-Oct-04 06:49N 01°09' E 103°36'0 0.0
2017-Oct-04 06:28N 01°09' E 103°36'0 0.0
2017-Oct-04 05:58N 01°09' E 103°36'0 0.1
2017-Oct-04 05:28N 01°09' E 103°36'0 0.1
2017-Oct-04 04:01N 01°09' E 103°36'0 0.1
2017-Oct-04 03:58N 01°09' E 103°36'0 0.1
2017-Oct-04 03:28N 01°09' E 103°36'0 0.1
2017-Oct-04 02:58N 01°09' E 103°36'0 0.0
2017-Oct-04 02:22N 01°09' E 103°36'0 0.0
2017-Oct-04 01:55N 01°09' E 103°36'0 0.0
2017-Oct-04 01:28N 01°09' E 103°36'0 0.0
2017-Oct-04 00:40N 01°09' E 103°36'0 0.2
2017-Oct-04 00:25N 01°09' E 103°36'0 0.1
2017-Oct-03 23:55N 01°09' E 103°36'0 0.1
2017-Oct-03 23:25N 01°09' E 103°36'0 0.2
2017-Oct-03 22:49N 01°09' E 103°36'0 0.2
2017-Oct-03 22:28N 01°09' E 103°36'0 0.0
2017-Oct-03 21:58N 01°09' E 103°36'0 0.0
2017-Oct-03 21:01N 01°09' E 103°36'0 0.0
2017-Oct-03 20:55N 01°09' E 103°36'0 0.0
2017-Oct-03 19:37N 01°09' E 103°36'0 0.0
2017-Oct-03 19:28N 01°09' E 103°36'0 0.0
2017-Oct-03 18:55N 01°09' E 103°36'0 0.0
2017-Oct-03 18:25N 01°09' E 103°36'0 0.0
2017-Oct-03 17:55N 01°09' E 103°36'0 0.1
2017-Oct-03 17:28N 01°09' E 103°36'0 0.0
2017-Oct-03 16:58N 01°09' E 103°36'0 0.0
2017-Oct-03 16:28N 01°09' E 103°36'0 0.1
2017-Oct-03 15:55N 01°09' E 103°36'0 0.1
2017-Oct-03 15:28N 01°09' E 103°36'0 0.0
2017-Oct-03 14:55N 01°09' E 103°36'0 0.0
2017-Oct-03 13:58N 01°09' E 103°36'0 0.1
2017-Oct-03 13:28N 01°09' E 103°36'0 0.0
2017-Oct-03 11:40N 01°09' E 103°36'0 0.1
2017-Oct-03 11:22N 01°09' E 103°36'0 0.0
2017-Oct-03 10:58N 01°09' E 103°36'0 0.0
2017-Oct-03 10:19N 01°09' E 103°36'0 0.0
2017-Oct-03 09:58N 01°09' E 103°36'0 0.0
2017-Oct-03 09:28N 01°09' E 103°36'0 0.1
2017-Oct-03 08:58N 01°09' E 103°36'0 0.1
2017-Oct-03 08:28N 01°09' E 103°36'0 0.1
2017-Oct-03 07:55N 01°09' E 103°36'0 0.0
2017-Oct-03 07:28N 01°09' E 103°36'0 0.0
2017-Oct-03 06:52N 01°09' E 103°36'0 0.1
2017-Oct-03 05:58N 01°09' E 103°36'0 0.1
2017-Oct-03 05:13N 01°09' E 103°36'0 0.2
2017-Oct-03 04:58N 01°09' E 103°36'0 0.1
2017-Oct-03 03:52N 01°09' E 103°36'0 0.1
2017-Oct-03 03:25N 01°09' E 103°36'0 0.0
2017-Oct-03 02:58N 01°09' E 103°36'0 0.0
2017-Oct-03 02:28N 01°09' E 103°36'0 0.0
2017-Oct-03 01:52N 01°09' E 103°36'0 0.0
2017-Oct-03 01:28N 01°09' E 103°36'0 0.0
2017-Oct-03 00:55N 01°09' E 103°36'0 0.1
2017-Oct-03 00:19N 01°09' E 103°36'0 0.1
2017-Oct-02 23:58N 01°09' E 103°36'0 0.1
2017-Oct-02 23:16N 01°09' E 103°36'0 0.0
2017-Oct-02 22:58N 01°09' E 103°36'0 0.0
2017-Oct-02 22:28N 01°09' E 103°36'0 0.0
2017-Oct-02 21:55N 01°09' E 103°36'0 0.0
2017-Oct-02 21:28N 01°09' E 103°36'0 0.0
2017-Oct-02 20:55N 01°09' E 103°36'0 0.0
2017-Oct-02 20:28N 01°09' E 103°36'0 0.0
2017-Oct-02 19:58N 01°09' E 103°36'0 0.0
2017-Oct-02 19:28N 01°09' E 103°36'0 0.0
2017-Oct-02 18:58N 01°09' E 103°36'0 0.0
2017-Oct-02 18:22N 01°09' E 103°36'0 0.0
2017-Oct-02 17:58N 01°09' E 103°36'0 0.0
2017-Oct-02 16:40N 01°09' E 103°36'0 0.3
2017-Oct-02 16:19N 01°09' E 103°36'1 2.6
2017-Oct-02 16:00N 01°10' E 103°35'1 0.0
2017-Oct-01 12:22N 01°09' E 103°35'0 0.0
2017-Oct-01 11:55N 01°09' E 103°35'0 0.0
2017-Oct-01 11:21N 01°09' E 103°35'0 0.0
2017-Oct-01 10:04N 01°09' E 103°35'0 0.0
2017-Oct-01 09:02N 01°09' E 103°35'0 0.3
2017-Oct-01 09:01N 01°09' E 103°35'0 0.8
2017-Oct-01 08:30N 01°09' E 103°34'1 2.4
2017-Oct-01 08:00N 01°09' E 103°36'0 0.2
2017-Oct-01 07:27N 01°09' E 103°36'0 0.0
2017-Oct-01 07:00N 01°09' E 103°36'0 0.0
2017-Oct-01 06:30N 01°09' E 103°36'0 0.0
2017-Oct-01 06:00N 01°09' E 103°36'0 0.0
2017-Oct-01 05:30N 01°09' E 103°36'0 0.0
2017-Oct-01 04:51N 01°09' E 103°36'0 0.2
2017-Oct-01 04:27N 01°09' E 103°36'0 0.1
2017-Oct-01 03:54N 01°09' E 103°36'0 0.0
2017-Oct-01 03:18N 01°09' E 103°36'7 0.3
2017-Sep-30 02:00N 01°15' E 103°32'  
Track history (hours):
 
Tides and Currents Weather Stations Pressure Air Temp Water Temp Dewpoint Dewpoint Depression Visibility Wind Speed Wind Dir Waves Ship Positions

Alpine Light

Last reported at 2017-Oct-08 16:34 UTC. Time now 2017-Oct-23 03:01 UTC.
Position N 01°10' E 103°49'.
Warning: this ship's position is 14 days out of date.

Length 183 m; draft 12.5 m.

Type: Tanker. MMSI: 538003962.

Date/timePositionNaut miles runAvg speedWind from/ knotsBaromVisibWave heightAir tempDewpointWater temp
2017-Oct-08 16:34N 01°10' E 103°49'0 3.1
2017-Oct-08 16:27N 01°10' E 103°49'13 1.7
2017-Oct-08 09:10N 01°14' E 104°01'211.4
2017-Oct-08 08:58N 01°14' E 103°58'511.6
2017-Oct-08 08:29N 01°12' E 103°53'612.0
2017-Oct-08 08:01N 01°09' E 103°48'611.2
2017-Oct-08 07:30N 01°05' E 103°44'510.1
2017-Oct-08 06:58N 01°02' E 103°40'712.8
2017-Oct-08 06:27N 01°05' E 103°34'  
2017-Oct-05 18:38N 01°13' E 103°29'213.3
2017-Oct-05 18:29N 01°13' E 103°31'511.5
2017-Oct-05 18:00N 01°11' E 103°36'510.1
2017-Oct-05 17:30N 01°10' E 103°41'5 9.2
2017-Oct-05 17:00N 01°09' E 103°46'5 3.3
2017-Oct-05 15:28N 01°14' E 103°48'0 0.1
2017-Oct-05 14:58N 01°14' E 103°48'0 0.1
2017-Oct-05 14:19N 01°14' E 103°48'0 0.0
2017-Oct-05 13:58N 01°14' E 103°48'0 0.0
2017-Oct-05 13:28N 01°14' E 103°48'0 0.1
2017-Oct-05 12:58N 01°14' E 103°48'0 0.0
2017-Oct-05 12:28N 01°14' E 103°48'0 0.0
2017-Oct-05 11:58N 01°14' E 103°48'0 0.0
2017-Oct-05 11:25N 01°13' E 103°48'0 0.0
2017-Oct-05 10:55N 01°14' E 103°48'0 0.0
2017-Oct-05 10:28N 01°14' E 103°48'0 0.1
2017-Oct-05 09:58N 01°14' E 103°48'0 0.1
2017-Oct-05 09:28N 01°14' E 103°48'0 0.1
2017-Oct-05 08:58N 01°14' E 103°49'0 0.1
2017-Oct-05 08:13N 01°13' E 103°49'0 0.0
2017-Oct-05 07:58N 01°13' E 103°49'0 0.0
2017-Oct-05 07:25N 01°13' E 103°49'0 0.0
2017-Oct-05 06:58N 01°13' E 103°49'0 0.1
2017-Oct-05 06:28N 01°13' E 103°49'0 0.1
2017-Oct-05 05:55N 01°13' E 103°49'0 0.0
2017-Oct-05 05:28N 01°13' E 103°49'0 0.1
2017-Oct-05 04:46N 01°14' E 103°48'0 0.0
2017-Oct-05 04:28N 01°14' E 103°48'0 0.0
2017-Oct-05 03:52N 01°14' E 103°48'0 0.1
2017-Oct-05 03:22N 01°14' E 103°48'0 0.1
2017-Oct-05 02:43N 01°14' E 103°48'0 0.0
2017-Oct-05 02:28N 01°14' E 103°48'0 0.1
2017-Oct-05 01:58N 01°14' E 103°48'0 0.1
2017-Oct-05 01:22N 01°14' E 103°48'0 0.1
2017-Oct-05 00:58N 01°14' E 103°48'0 0.1
2017-Oct-05 00:28N 01°14' E 103°48'0 0.2
2017-Oct-04 23:58N 01°13' E 103°49'0 0.0
2017-Oct-04 23:28N 01°13' E 103°49'0 0.0
2017-Oct-04 22:52N 01°13' E 103°49'0 0.0
2017-Oct-04 22:25N 01°13' E 103°49'0 0.0
2017-Oct-04 21:58N 01°13' E 103°49'0 0.1
2017-Oct-04 21:28N 01°13' E 103°49'0 0.0
2017-Oct-04 20:58N 01°13' E 103°49'0 0.0
2017-Oct-04 20:28N 01°13' E 103°49'0 0.0
2017-Oct-04 19:58N 01°13' E 103°49'0 0.0
2017-Oct-04 19:28N 01°13' E 103°49'0 0.0
2017-Oct-04 18:58N 01°13' E 103°49'0 0.0
2017-Oct-04 18:28N 01°13' E 103°49'0 0.0
2017-Oct-04 17:58N 01°13' E 103°49'0 0.1
2017-Oct-04 17:28N 01°13' E 103°49'0 0.1
2017-Oct-04 16:58N 01°13' E 103°49'0 0.0
2017-Oct-04 16:25N 01°13' E 103°49'0 0.1
2017-Oct-04 15:58N 01°14' E 103°48'0 0.0
2017-Oct-04 15:28N 01°13' E 103°48'0 0.0
2017-Oct-04 14:52N 01°14' E 103°48'0 0.1
2017-Oct-04 14:28N 01°14' E 103°48'0 0.1
2017-Oct-04 13:58N 01°14' E 103°48'0 0.0
2017-Oct-04 13:28N 01°14' E 103°48'0 0.1
2017-Oct-04 12:49N 01°14' E 103°48'0 0.0
2017-Oct-04 12:28N 01°14' E 103°48'0 0.1
2017-Oct-04 11:58N 01°14' E 103°48'0 0.0
2017-Oct-04 11:25N 01°14' E 103°48'0 0.1
2017-Oct-04 10:58N 01°13' E 103°48'0 0.1
2017-Oct-04 10:23N 01°14' E 103°48'0 0.9
2017-Oct-04 10:00N 01°14' E 103°48'3 6.6
2017-Oct-04 09:30N 01°15' E 103°45'5 9.8
2017-Oct-04 09:00N 01°13' E 103°40'4 8.0
2017-Oct-04 08:30N 01°13' E 103°36'4 7.7
2017-Oct-04 08:01N 01°09' E 103°36'0 0.1
2017-Oct-04 07:28N 01°09' E 103°36'0 0.0
2017-Oct-04 06:49N 01°09' E 103°36'0 0.0
2017-Oct-04 06:28N 01°09' E 103°36'0 0.0
2017-Oct-04 05:58N 01°09' E 103°36'0 0.1
2017-Oct-04 05:28N 01°09' E 103°36'0 0.1
2017-Oct-04 04:01N 01°09' E 103°36'0 0.1
2017-Oct-04 03:58N 01°09' E 103°36'0 0.1
2017-Oct-04 03:28N 01°09' E 103°36'0 0.1
2017-Oct-04 02:58N 01°09' E 103°36'0 0.0
2017-Oct-04 02:22N 01°09' E 103°36'0 0.0
2017-Oct-04 01:55N 01°09' E 103°36'0 0.0
2017-Oct-04 01:28N 01°09' E 103°36'0 0.0
2017-Oct-04 00:40N 01°09' E 103°36'0 0.2
2017-Oct-04 00:25N 01°09' E 103°36'0 0.1
2017-Oct-03 23:55N 01°09' E 103°36'0 0.1
2017-Oct-03 23:25N 01°09' E 103°36'0 0.2
2017-Oct-03 22:49N 01°09' E 103°36'0 0.2
2017-Oct-03 22:28N 01°09' E 103°36'0 0.0
2017-Oct-03 21:58N 01°09' E 103°36'0 0.0
2017-Oct-03 21:01N 01°09' E 103°36'0 0.0
2017-Oct-03 20:55N 01°09' E 103°36'0 0.0
2017-Oct-03 19:37N 01°09' E 103°36'0 0.0
2017-Oct-03 19:28N 01°09' E 103°36'0 0.0
2017-Oct-03 18:55N 01°09' E 103°36'0 0.0
2017-Oct-03 18:25N 01°09' E 103°36'0 0.0
2017-Oct-03 17:55N 01°09' E 103°36'0 0.1
2017-Oct-03 17:28N 01°09' E 103°36'0 0.0
2017-Oct-03 16:58N 01°09' E 103°36'0 0.0
2017-Oct-03 16:28N 01°09' E 103°36'0 0.1
2017-Oct-03 15:55N 01°09' E 103°36'0 0.1
2017-Oct-03 15:28N 01°09' E 103°36'0 0.0
2017-Oct-03 14:55N 01°09' E 103°36'0 0.0
2017-Oct-03 13:58N 01°09' E 103°36'0 0.1
2017-Oct-03 13:28N 01°09' E 103°36'0 0.0
2017-Oct-03 11:40N 01°09' E 103°36'0 0.1
2017-Oct-03 11:22N 01°09' E 103°36'0 0.0
2017-Oct-03 10:58N 01°09' E 103°36'0 0.0
2017-Oct-03 10:19N 01°09' E 103°36'0 0.0
2017-Oct-03 09:58N 01°09' E 103°36'0 0.0
2017-Oct-03 09:28N 01°09' E 103°36'0 0.1
2017-Oct-03 08:58N 01°09' E 103°36'0 0.1
2017-Oct-03 08:28N 01°09' E 103°36'0 0.1
2017-Oct-03 07:55N 01°09' E 103°36'0 0.0
2017-Oct-03 07:28N 01°09' E 103°36'0 0.0
2017-Oct-03 06:52N 01°09' E 103°36'0 0.1
2017-Oct-03 05:58N 01°09' E 103°36'0 0.1
2017-Oct-03 05:13N 01°09' E 103°36'0 0.2
2017-Oct-03 04:58N 01°09' E 103°36'0 0.1
2017-Oct-03 03:52N 01°09' E 103°36'0 0.1
2017-Oct-03 03:25N 01°09' E 103°36'0 0.0
2017-Oct-03 02:58N 01°09' E 103°36'0 0.0
2017-Oct-03 02:28N 01°09' E 103°36'0 0.0
2017-Oct-03 01:52N 01°09' E 103°36'0 0.0
2017-Oct-03 01:28N 01°09' E 103°36'0 0.0
2017-Oct-03 00:55N 01°09' E 103°36'0 0.1
2017-Oct-03 00:19N 01°09' E 103°36'0 0.1
2017-Oct-02 23:58N 01°09' E 103°36'0 0.1
2017-Oct-02 23:16N 01°09' E 103°36'0 0.0
2017-Oct-02 22:58N 01°09' E 103°36'0 0.0
2017-Oct-02 22:28N 01°09' E 103°36'0 0.0
2017-Oct-02 21:55N 01°09' E 103°36'0 0.0
2017-Oct-02 21:28N 01°09' E 103°36'0 0.0
2017-Oct-02 20:55N 01°09' E 103°36'0 0.0
2017-Oct-02 20:28N 01°09' E 103°36'0 0.0
2017-Oct-02 19:58N 01°09' E 103°36'0 0.0
2017-Oct-02 19:28N 01°09' E 103°36'0 0.0
2017-Oct-02 18:58N 01°09' E 103°36'0 0.0
2017-Oct-02 18:22N 01°09' E 103°36'0 0.0
2017-Oct-02 17:58N 01°09' E 103°36'0 0.0
2017-Oct-02 16:40N 01°09' E 103°36'0 0.3
2017-Oct-02 16:19N 01°09' E 103°36'1 2.6
2017-Oct-02 16:00N 01°10' E 103°35'1 0.0
2017-Oct-01 12:22N 01°09' E 103°35'0 0.0
2017-Oct-01 11:55N 01°09' E 103°35'0 0.0
2017-Oct-01 11:21N 01°09' E 103°35'0 0.0
2017-Oct-01 10:04N 01°09' E 103°35'0 0.0
2017-Oct-01 09:02N 01°09' E 103°35'0 0.3
2017-Oct-01 09:01N 01°09' E 103°35'0 0.8
2017-Oct-01 08:30N 01°09' E 103°34'1 2.4
2017-Oct-01 08:00N 01°09' E 103°36'0 0.2
2017-Oct-01 07:27N 01°09' E 103°36'0 0.0
2017-Oct-01 07:00N 01°09' E 103°36'0 0.0
2017-Oct-01 06:30N 01°09' E 103°36'0 0.0
2017-Oct-01 06:00N 01°09' E 103°36'0 0.0
2017-Oct-01 05:30N 01°09' E 103°36'0 0.0
2017-Oct-01 04:51N 01°09' E 103°36'0 0.2
2017-Oct-01 04:27N 01°09' E 103°36'0 0.1
2017-Oct-01 03:54N 01°09' E 103°36'0 0.0
2017-Oct-01 03:18N 01°09' E 103°36'7 0.3
2017-Sep-30 02:00N 01°15' E 103°32'  

Dump ship's entire track history